Latest Weather Observations for Hamilton Island

IDQ60801

Issued at 8:32 pm EST Wednesday 1 April 2015 (issued every 30 minutes, with the page automatically refreshed every 10 minutes)

About weather observations | Map of weather stations | Latest weather observations for QLD | Other Formats
Station Details ID: 033106 Name: HAMILTON ISLAND AIRPORT Lat: -20.37 Lon: 148.95 Height: 58.66 m
Data from the previous 72 hours. | See also: Recent months at Hamilton Island
Date/Time
EST
Temp
°C
App
Temp
°C
Dew
Point
Rel
Hum
%
Delta-T
°C
Wind Press
QNH
hPa
Press
MSL
hPa
Rain
since 9 am
mm
Dir
 
Spd
km/h
Gust
km/h
Spd
kts
Gust
kts
01/08:30pm 25.4 21.4 20.9 76 3.0 SSE 43 52 23 28 1014.4 - 0.2
01/08:00pm 25.9 23.1 21.1 75 3.2 SE 37 44 20 24 1014.1 - 0.2
01/07:30pm 25.9 24.5 22.0 79 2.6 SSE 32 39 17 21 1013.6 - 0.2
01/07:00pm 25.8 24.6 20.8 74 3.3 SE 28 32 15 17 1013.6 - 0.2
01/06:30pm 25.9 24.4 20.9 74 3.3 SE 30 35 16 19 1013.2 - 0.2
01/06:00pm 26.0 25.0 21.2 75 3.2 SE 28 32 15 17 1013.1 1012.8 0.2
01/05:30pm 26.1 24.7 20.4 71 3.7 SE 28 33 15 18 1012.7 - 0.2
01/05:00pm 26.5 24.8 19.9 67 4.3 SE 28 33 15 18 1012.3 - 0.2
01/04:30pm 26.4 23.6 19.5 66 4.5 SE 33 39 18 21 1012.3 - 0.2
01/04:00pm 26.6 24.6 21.1 72 3.6 SSE 33 39 18 21 1012.4 - 0.2
01/03:30pm 27.5 24.9 19.8 63 5.0 SE 33 39 18 21 1012.4 - 0.2
01/03:00pm 27.9 26.4 21.7 69 4.2 SE 32 41 17 22 1012.6 1012.3 0.2
01/02:30pm 27.8 24.5 20.1 63 5.0 SE 37 43 20 23 1012.8 - 0.2
01/02:00pm 28.0 26.1 22.0 70 4.0 SE 35 43 19 23 1013.2 - 0.2
01/01:30pm 27.1 26.8 21.8 73 3.6 SE 26 30 14 16 1013.6 - 0.2
01/01:00pm 25.0 20.0 20.9 78 2.7 SE 48 57 26 31 1013.9 - 0.2
01/12:30pm 28.2 26.1 22.4 71 3.9 SE 37 46 20 25 1014.4 - 0.2
01/12:00pm 26.3 23.2 21.9 77 2.9 SE 41 46 22 25 1015.0 1014.8 0.2
01/11:32am 26.2 22.0 21.0 73 3.4 ESE 44 63 24 34 1015.1 - 0.2
01/11:30am 27.0 23.6 21.3 71 3.8 ESE 41 50 22 27 1015.2 - 0.2
01/11:00am 26.6 22.1 21.1 72 3.6 ESE 46 54 25 29 1015.6 - 0.2
01/10:30am 26.4 22.7 21.6 75 3.2 SE 43 52 23 28 1016.1 - 0.2
01/10:00am 27.6 24.1 21.9 71 3.8 SSE 43 50 23 27 1016.2 - 0.0
01/09:30am 27.6 24.9 21.9 71 3.8 SSE 39 44 21 24 1016.4 - 0.0
01/09:00am 26.2 22.3 21.2 74 3.3 SE 43 56 23 30 1016.2 1016.0 3.2
01/08:30am 25.4 22.3 21.9 81 2.3 SE 41 50 22 27 1016.0 - 3.2
01/08:00am 25.3 23.7 22.6 85 1.8 SE 35 43 19 23 1015.8 - 3.2
01/07:30am 25.4 21.9 21.9 81 2.3 SE 43 50 23 27 1015.7 - 3.2
01/07:00am 25.9 22.1 20.5 72 3.5 SE 41 46 22 25 1015.4 - 3.0
01/06:30am 25.7 21.8 20.3 72 3.5 SE 41 50 22 27 1015.1 - 3.0
01/06:00am 25.4 21.3 20.0 72 3.5 SE 41 48 22 26 1014.7 1014.5 3.0
01/05:30am 25.5 21.0 19.9 71 3.6 SE 43 48 23 26 1014.4 - 3.0
01/05:00am 25.5 21.1 20.1 72 3.5 SE 43 52 23 28 1014.3 - 3.0
01/04:30am 25.4 21.9 20.4 74 3.3 SE 39 44 21 24 1014.0 - 3.0
01/04:00am 25.4 21.5 20.4 74 3.3 ESE 41 46 22 25 1014.0 - 3.0
01/03:30am 25.3 20.4 19.0 68 4.0 ESE 43 54 23 29 1013.7 - 3.0
01/03:00am 25.3 21.6 20.8 76 3.0 SE 41 46 22 25 1014.0 1013.7 3.0
01/02:30am 25.2 20.7 19.8 72 3.5 SE 43 50 23 27 1014.2 - 3.0
01/02:00am 24.9 20.4 20.2 75 3.1 SE 44 52 24 28 1015.1 - 3.0
01/01:30am 25.0 20.3 19.8 73 3.4 SE 44 57 24 31 1015.2 - 2.8
01/01:00am 24.8 21.2 20.9 79 2.6 ESE 41 48 22 26 1015.9 - 2.8
01/12:30am 24.7 20.4 21.4 82 2.2 ESE 46 54 25 29 1016.3 - 2.8
01/12:10am 24.7 21.1 22.0 85 1.8 SE 44 54 24 29 1016.4 - 2.8
01/12:00am 24.5 20.4 21.8 85 1.8 SE 46 57 25 31 1016.5 1016.3 2.8
 
Date/Time
EST
Temp
°C
App
Temp
°C
Dew
Point
Rel
Hum
%
Delta-T
°C
Wind Press
QNH
hPa
Press
MSL
hPa
Rain
since 9 am
mm
Dir
 
Spd
km/h
Gust
km/h
Spd
kts
Gust
kts
31/11:44pm 25.7 23.3 22.6 83 2.1 SE 39 44 21 24 1016.8 - 2.6
31/11:30pm 25.7 22.5 22.4 82 2.2 SE 43 48 23 26 1016.9 - 2.6
31/11:00pm 25.6 21.8 21.7 79 2.6 SE 44 57 24 31 1016.8 - 2.6
31/10:46pm 25.7 20.8 21.8 79 2.6 SE 50 57 27 31 1016.7 - 2.6
31/10:34pm 25.6 21.5 22.5 83 2.1 SE 48 56 26 30 1016.8 - 2.6
31/10:30pm 25.5 21.4 22.6 84 2.0 SE 48 56 26 30 1016.7 - 2.6
31/10:00pm 24.9 22.3 22.2 85 1.8 ESE 39 48 21 26 1016.9 - 2.6
31/09:30pm 26.0 22.9 21.9 78 2.7 SE 41 48 22 26 1017.0 - 2.6
31/09:00pm 25.8 24.4 22.3 81 2.4 SE 33 39 18 21 1017.0 1016.7 2.6
31/08:30pm 25.7 23.2 22.4 82 2.2 ESE 39 44 21 24 1016.7 - 2.6
31/08:00pm 26.0 23.7 21.2 75 3.2 SE 35 43 19 23 1016.5 - 2.6
31/07:30pm 26.1 24.6 22.0 78 2.7 SE 33 39 18 21 1016.1 - 2.6
31/07:00pm 25.9 25.0 22.2 80 2.5 SE 30 35 16 19 1015.9 - 2.6
31/06:30pm 25.6 24.9 22.5 83 2.1 SE 30 37 16 20 1015.6 - 2.6
31/06:00pm 25.9 24.8 21.8 78 2.7 SE 30 35 16 19 1015.4 1015.1 2.6
31/05:30pm 26.3 26.5 22.8 81 2.4 SE 26 32 14 17 1015.1 - 2.6
31/05:00pm 26.4 26.0 21.6 75 3.2 SE 26 32 14 17 1014.9 - 2.6
31/04:30pm 26.0 26.1 21.9 78 2.7 SE 24 28 13 15 1014.7 - 2.6
31/04:00pm 25.5 25.7 22.8 85 1.8 SE 26 30 14 16 1014.5 - 2.6
31/03:51pm 25.3 25.7 23.2 88 1.4 SE 26 32 14 17 1014.5 - 2.6
31/03:34pm 24.6 23.1 22.8 90 1.2 SE 35 48 19 26 1014.6 - 2.6
31/03:30pm 24.7 23.1 22.6 88 1.4 ESE 35 48 19 26 1014.6 - 2.6
31/03:00pm 27.0 27.7 23.7 82 2.3 SE 26 35 14 19 1014.8 1014.5 2.4
31/02:30pm 26.7 25.6 22.5 78 2.8 SSE 32 39 17 21 1014.8 - 2.4
31/02:00pm 27.2 27.2 23.0 78 2.9 SSE 28 35 15 19 1015.3 - 2.2
31/01:30pm 27.0 27.5 23.3 80 2.5 SSE 26 32 14 17 1015.9 - 2.2
31/01:00pm 25.2 24.6 23.3 89 1.3 SSE 32 43 17 23 1016.2 - 2.2
31/12:30pm 25.4 23.6 22.3 83 2.1 S 35 44 19 24 1016.5 - 2.2
31/12:26pm 25.5 24.2 22.4 83 2.1 S 33 44 18 24 1016.6 - 2.2
31/12:09pm 25.8 25.8 23.1 85 1.8 S 28 35 15 19 1016.9 - 2.2
31/12:00pm 25.8 26.1 22.9 84 2.0 S 26 33 14 18 1017.2 1016.9 2.2
31/11:48am 26.2 26.0 22.7 81 2.4 SSE 28 35 15 19 1017.3 - 2.2
31/11:30am 25.7 25.5 22.8 84 2.0 SSE 28 41 15 22 1017.8 - 2.2
31/11:29am 25.9 26.1 22.8 83 2.1 SSE 26 41 14 22 1017.8 - 2.2
31/11:00am 27.7 26.4 22.4 73 3.6 SE 33 37 18 20 1018.0 - 2.2
31/10:30am 27.2 27.0 23.4 80 2.6 SE 30 35 16 19 1018.4 - 2.2
31/10:08am 26.2 26.3 23.9 87 1.6 SE 30 37 16 20 1018.5 - 2.2
31/10:00am 25.7 24.7 23.7 89 1.4 SE 35 46 19 25 1018.6 - 2.2
31/09:48am 25.3 22.7 23.5 90 1.2 SE 43 48 23 26 1018.2 - 2.2
31/09:30am 24.8 21.3 23.6 93 0.8 SE 48 59 26 32 1018.1 - 1.8
31/09:28am 24.7 20.6 23.3 92 1.0 SE 50 59 27 32 1018.1 - 1.6
31/09:24am 25.1 20.9 23.7 92 1.0 SE 52 61 28 33 1018.1 - 1.2
31/09:11am 24.9 23.7 23.3 91 1.1 SSE 35 54 19 29 1017.9 - 0.8
31/09:07am 25.1 25.0 23.5 91 1.1 S 30 44 16 24 1018.1 - 0.8
31/09:00am 24.8 24.4 23.0 90 1.2 S 30 37 16 20 1018.1 1017.8 1.0
31/08:50am 25.0 24.3 23.2 90 1.2 SSE 32 41 17 22 1018.1 - 1.0
31/08:35am 24.7 22.7 23.3 92 1.0 SSE 39 48 21 26 1018.0 - 1.0
31/08:30am 24.7 22.7 23.3 92 1.0 SSE 39 48 21 26 1018.0 - 1.0
31/08:15am 24.4 21.0 22.5 89 1.3 SSE 44 54 24 29 1017.8 - 0.6
31/08:03am 25.5 24.0 23.4 88 1.4 SSE 37 46 20 25 1017.8 - 0.6
31/08:00am 25.6 24.2 23.6 89 1.4 SSE 37 43 20 23 1017.7 - 0.6
31/07:56am 25.3 24.4 23.2 88 1.4 SSE 33 43 18 23 1017.8 - 0.6
31/07:30am 25.5 25.6 22.6 84 2.0 S 26 35 14 19 1017.4 - 0.6
31/07:00am 26.6 25.7 21.4 73 3.5 ESE 28 32 15 17 1017.0 - 0.4
31/06:30am 26.6 25.4 21.6 74 3.3 ESE 30 35 16 19 1016.4 - 0.4
31/06:00am 26.5 24.9 21.5 74 3.3 ESE 32 35 17 19 1016.2 1015.9 0.4
31/05:30am 26.5 24.2 21.3 73 3.5 E 35 39 19 21 1016.1 - 0.4
31/05:00am 26.6 24.4 21.4 73 3.5 ESE 35 41 19 22 1015.9 - 0.4
31/04:30am 26.5 24.4 21.0 72 3.6 E 33 39 18 21 1015.6 - 0.4
31/04:00am 26.1 25.3 22.4 80 2.5 ESE 30 35 16 19 1015.6 - 0.4
31/03:30am 25.9 25.0 22.2 80 2.5 ESE 30 35 16 19 1015.7 - 0.4
31/03:00am 25.8 24.0 22.3 81 2.4 ESE 35 39 19 21 1015.9 1015.6 0.4
31/02:30am 25.7 24.7 22.6 83 2.1 ESE 32 37 17 20 1015.9 - 0.4
31/02:12am 26.3 24.7 21.9 77 2.9 E 33 52 18 28 1015.9 - 0.0
31/02:00am 26.3 24.9 21.9 77 2.9 E 32 39 17 21 1016.2 - 0.0
31/01:30am 26.1 25.1 22.6 81 2.4 ESE 32 37 17 20 1016.7 - 0.0
31/01:19am 26.1 24.8 22.4 80 2.5 ESE 33 37 18 20 1016.8 - 0.0
31/01:09am 26.0 25.7 23.3 85 1.8 SE 30 39 16 21 1016.9 - 0.0
31/01:00am 25.8 24.8 22.7 83 2.1 ESE 32 44 17 24 1017.0 - 0.0
31/12:30am 26.5 26.2 22.6 79 2.6 ESE 28 33 15 18 1017.4 - 0.0
31/12:00am 26.5 25.9 21.9 76 3.1 ESE 28 32 15 17 1017.7 1017.4 0.0
 
Date/Time
EST
Temp
°C
App
Temp
°C
Dew
Point
Rel
Hum
%
Delta-T
°C
Wind Press
QNH
hPa
Press
MSL
hPa
Rain
since 9 am
mm
Dir
 
Spd
km/h
Gust
km/h
Spd
kts
Gust
kts
30/11:30pm 26.8 25.9 22.2 76 3.1 ESE 30 37 16 20 1017.9 - 0.0
30/11:00pm 26.6 25.4 22.2 77 3.0 ESE 32 37 17 20 1018.1 - 0.0
30/10:30pm 26.9 25.9 21.9 74 3.4 ESE 30 35 16 19 1018.4 - 0.0
30/10:00pm 27.0 25.2 21.5 72 3.7 ESE 33 39 18 21 1018.5 - 0.0
30/09:30pm 27.0 26.6 22.4 76 3.1 ESE 28 32 15 17 1018.6 - 0.0
30/09:00pm 26.9 26.3 21.9 74 3.3 ESE 28 33 15 18 1018.6 1018.3 0.0
30/08:30pm 27.0 25.9 21.7 73 3.5 ESE 30 37 16 20 1018.6 - 0.0
30/08:00pm 27.2 26.8 22.4 75 3.2 ESE 28 33 15 18 1018.4 - 0.0
30/07:30pm 27.0 25.4 21.5 72 3.7 ESE 32 35 17 19 1017.9 - 0.0
30/07:00pm 27.1 25.3 21.2 70 3.9 ESE 32 35 17 19 1017.7 - 0.0
30/06:30pm 27.2 25.4 21.5 71 3.8 ESE 33 37 18 20 1017.6 - 0.0
30/06:00pm 27.1 25.5 21.6 72 3.7 ESE 32 35 17 19 1017.3 1017.0 0.0
30/05:30pm 27.4 25.9 21.7 71 3.8 ESE 32 39 17 21 1017.1 - 0.0
30/05:00pm 27.5 25.9 21.5 70 4.0 ESE 32 37 17 20 1016.8 - 0.0
30/04:30pm 27.7 25.8 21.3 68 4.3 ESE 33 37 18 20 1016.6 - 0.0
30/04:00pm 28.2 26.4 21.5 67 4.5 ESE 33 37 18 20 1016.4 - 0.0
30/03:30pm 28.6 27.0 21.6 66 4.7 ESE 32 39 17 21 1016.3 - 0.0
30/03:00pm 29.0 27.8 22.2 66 4.6 ESE 32 39 17 21 1016.1 1015.8 0.0
30/02:30pm 28.6 27.0 21.9 67 4.5 SE 33 37 18 20 1016.0 - 0.0
30/02:00pm 29.5 29.0 22.2 65 5.0 ESE 28 35 15 19 1016.2 - 0.0
30/01:30pm 29.1 27.6 21.8 64 4.9 ESE 32 35 17 19 1016.5 - 0.0
30/01:00pm 29.6 29.0 22.6 66 4.8 ESE 30 35 16 19 1017.3 - 0.0
30/12:30pm 29.4 28.1 22.1 65 4.9 ESE 32 35 17 19 1017.5 - 0.0
30/12:00pm 29.3 27.9 22.3 66 4.7 ESE 33 37 18 20 1017.9 1017.6 0.0
30/11:30am 28.9 26.9 21.1 62 5.2 ESE 33 37 18 20 1018.3 - 0.0
30/11:00am 29.6 28.4 22.3 65 5.0 ESE 32 37 17 20 1018.8 - 0.0
30/10:30am 28.8 26.8 20.8 62 5.3 ESE 32 39 17 21 1019.1 - 0.0
30/10:00am 28.9 27.8 21.7 65 4.8 ESE 30 37 16 20 1019.2 - 0.0
30/09:30am 28.8 26.4 21.0 62 5.2 ESE 35 41 19 22 1019.2 - 0.0
30/09:00am 28.7 26.9 22.2 68 4.4 ESE 35 41 19 22 1019.1 1018.8 0.0
30/08:30am 27.9 25.3 21.4 67 4.3 E 37 43 20 23 1018.9 - 0.0
30/08:00am 27.8 24.4 20.6 65 4.8 ESE 39 46 21 25 1018.4 - 0.0
30/07:30am 27.5 25.2 21.3 69 4.1 ESE 35 43 19 23 1018.0 - 0.0
30/07:00am 27.3 25.0 20.6 67 4.4 ESE 33 43 18 23 1017.9 - 0.0
30/06:30am 26.8 24.0 21.1 71 3.8 ESE 37 46 20 25 1017.6 - 0.0
30/06:00am 26.5 24.2 21.3 73 3.5 ESE 35 41 19 22 1017.4 1017.1 0.0
30/05:30am 26.6 23.3 20.9 71 3.8 ESE 39 46 21 25 1017.1 - 0.0
30/05:00am 26.7 23.8 21.5 73 3.5 ESE 39 46 21 25 1016.8 - 0.0
30/04:30am 26.8 23.5 20.9 70 3.9 ESE 39 50 21 27 1016.6 - 0.0
30/04:00am 26.7 22.9 20.5 69 4.1 ESE 41 48 22 26 1016.4 - 0.0
30/03:30am 26.6 24.0 21.4 73 3.5 ESE 37 44 20 24 1016.4 - 0.0
30/03:00am 26.6 23.0 20.2 68 4.2 ESE 39 46 21 25 1016.3 1016.0 0.0
30/02:30am 26.8 23.5 20.9 70 3.9 ESE 39 46 21 25 1016.6 - 0.0
30/02:00am 26.7 24.1 21.5 73 3.5 ESE 37 44 20 24 1016.9 - 0.0
30/01:30am 26.8 23.0 20.6 69 4.1 ESE 41 48 22 26 1017.3 - 0.0
30/01:00am 27.0 23.3 20.8 69 4.1 ESE 41 48 22 26 1017.5 - 0.0
30/12:30am 26.9 23.0 21.4 72 3.7 ESE 44 54 24 29 1017.8 - 0.0
30/12:00am 26.9 22.4 21.0 70 3.9 ESE 46 52 25 28 1017.9 1017.6 0.0
 
Date/Time
EST
Temp
°C
App
Temp
°C
Dew
Point
Rel
Hum
%
Delta-T
°C
Wind Press
QNH
hPa
Press
MSL
hPa
Rain
since 9 am
mm
Dir
 
Spd
km/h
Gust
km/h
Spd
kts
Gust
kts
29/11:30pm 27.0 22.6 21.3 71 3.8 ESE 46 52 25 28 1018.1 - 0.0
29/11:00pm 26.9 24.9 21.9 74 3.4 ESE 35 43 19 23 1018.7 - 0.0
29/10:30pm 27.2 24.5 21.2 69 4.0 ESE 37 46 20 25 1018.7 - 0.0
29/10:00pm 27.0 23.5 21.1 70 3.9 ESE 41 46 22 25 1018.7 - 0.0
29/09:30pm 27.1 23.8 20.9 69 4.1 ESE 39 48 21 26 1018.9 - 0.0
29/09:00pm 26.9 23.5 20.7 69 4.1 ESE 39 44 21 24 1018.8 1018.5 0.0

Other Formats:

Comma delimited format used in spreadsheet applications
http://www.bom.gov.au/fwo/IDQ60801/IDQ60801.94368.axf

JavaScript Object Notation format (JSON) in row-major order
http://www.bom.gov.au/fwo/IDQ60801/IDQ60801.94368.json